BZO weather

Bolzano Airport
Bolzano, Trentino-Alto Adige, Italy

Public forecast

Using degrees Celsius for public forecast. Weather courtesy of forecast.io.

Current aviation weather report (METAR) for Bolzano Airport

Retrieved 2019/11/21 11:50 UTC (45 minutes ago):

LIPB 211150Z VRB02KT 9999 -DZ FEW020 BKN030 08/06 Q1012 RMK MON CIME INC

Aviation forecast (TAF) for Bolzano Airport

Retrieved 2019/11/21 12:21 UTC (14 minutes ago):

TAF LIPB 211100Z 2112/2212 VRB04KT 9999 SCT020 BKN030